Time;durP1;ratioP1;P1;durP2;ratioP2;P2;SDS_P1;SDS_P2;PMS_P1;PMS_P2;Temp;Humidity;BMP_temperature;BMP_pressure;BME280_temperature;BME280_humidity;BME280_pressure;Samples;Min_cycle;Max_cycle;Signal;HPM_P1;HPM_P2
2022/01/31 00:00:10;;;;;;;77.47;40.80;;;;;;;4.12;59.11;101591.25;5013403;28;20054;-68
2022/01/31 00:02:37;;;;;;;69.70;40.53;;;;;;;4.14;59.11;101589.50;5013512;28;20502;-68
2022/01/31 00:05:04;;;;;;;77.90;40.97;;;;;;;4.06;59.53;101587.03;5013461;28;20057;-67
2022/01/31 00:07:31;;;;;;;76.97;41.42;;;;;;;4.04;59.58;101582.75;5014668;28;20046;-66
2022/01/31 00:09:58;;;;;;;80.45;41.83;;;;;;;4.02;59.52;101563.72;5013469;28;20065;-68
2022/01/31 00:12:29;;;;;;;79.35;41.05;;;;;;;4.03;59.46;101568.88;5013829;28;20072;-67
2022/01/31 00:15:02;;;;;;;78.10;42.20;;;;;;;4.02;59.40;101564.56;5013569;28;20045;-67
2022/01/31 00:17:28;;;;;;;82.47;42.13;;;;;;;3.97;59.28;101561.19;5013854;28;20112;-68
2022/01/31 00:19:55;;;;;;;81.30;42.30;;;;;;;3.89;59.37;101550.91;5013239;28;20046;-68
2022/01/31 00:22:22;;;;;;;83.53;42.83;;;;;;;3.87;59.27;101555.28;5013683;28;20050;-67
2022/01/31 00:24:49;;;;;;;81.72;42.30;;;;;;;3.84;59.38;101564.88;5013469;28;20056;-68
2022/01/31 00:27:16;;;;;;;84.15;43.67;;;;;;;3.83;59.54;101544.97;5013558;28;20050;-68
2022/01/31 00:29:42;;;;;;;80.78;43.30;;;;;;;3.83;59.18;101545.81;5012983;28;20092;-68
2022/01/31 00:32:09;;;;;;;80.82;41.90;;;;;;;3.83;59.19;101548.41;5013941;28;20046;-67
2022/01/31 00:34:36;;;;;;;79.95;40.78;;;;;;;3.75;59.34;101545.94;5013550;28;20054;-67
2022/01/31 00:37:03;;;;;;;77.07;40.00;;;;;;;3.69;59.32;101546.03;5013502;28;20050;-67
2022/01/31 00:39:34;;;;;;;76.70;40.00;;;;;;;3.71;59.47;101543.44;5014786;28;20042;-68
2022/01/31 00:42:02;;;;;;;75.20;40.65;;;;;;;3.72;59.22;101542.53;5017200;28;20046;-66
2022/01/31 00:44:39;;;;;;;75.53;39.83;;;;;;;3.72;59.45;101543.41;5017254;28;20116;-68
2022/01/31 00:47:17;;;;;;;71.75;38.70;;;;;;;3.67;59.39;101534.84;5017240;28;20522;-67
2022/01/31 00:49:50;;;;;;;68.15;38.20;;;;;;;3.65;59.26;101525.34;5016829;28;20046;-68
2022/01/31 00:52:18;;;;;;;71.03;40.38;;;;;;;3.64;59.14;101510.66;5017187;28;20470;-68
2022/01/31 00:54:46;;;;;;;68.18;38.55;;;;;;;3.63;59.31;101512.41;5016938;28;20053;-67
2022/01/31 00:57:13;;;;;;;71.53;38.90;;;;;;;3.65;59.35;101496.81;5017048;28;20045;-68
2022/01/31 00:59:39;;;;;;;76.45;40.58;;;;;;;3.68;59.15;101483.75;5017063;28;20092;-68
2022/01/31 01:02:06;;;;;;;82.25;42.03;;;;;;;3.67;59.34;101477.72;5016947;28;20057;-67
2022/01/31 01:04:33;;;;;;;74.97;41.45;;;;;;;3.65;59.43;101473.44;5016795;28;20048;-68
2022/01/31 01:07:00;;;;;;;71.60;39.33;;;;;;;3.59;59.64;101470.06;5016866;28;20399;-67
2022/01/31 01:09:26;;;;;;;74.20;40.85;;;;;;;3.58;59.48;101472.66;5016865;28;20049;-68
2022/01/31 01:11:53;;;;;;;80.82;43.25;;;;;;;3.55;59.41;101478.75;5016768;28;20085;-68
2022/01/31 01:14:19;;;;;;;77.95;41.95;;;;;;;3.54;59.72;101484.84;5016416;28;20495;-68
2022/01/31 01:16:46;;;;;;;87.15;44.50;;;;;;;3.61;59.72;101483.00;5016378;28;20064;-67
2022/01/31 01:19:13;;;;;;;77.63;41.63;;;;;;;3.63;59.72;101477.78;5016413;28;20514;-67
2022/01/31 01:21:40;;;;;;;78.15;41.17;;;;;;;3.61;59.93;101470.03;5016519;28;20100;-67
2022/01/31 01:24:07;;;;;;;82.05;42.58;;;;;;;3.57;60.17;101474.41;5016226;28;20088;-67
2022/01/31 01:26:33;;;;;;;77.28;42.38;;;;;;;3.51;60.05;101471.06;5016231;28;20505;-68
2022/01/31 01:29:00;;;;;;;75.43;41.17;;;;;;;3.49;60.11;101465.03;5016077;28;20557;-67
2022/01/31 01:31:27;;;;;;;73.95;40.72;;;;;;;3.43;60.07;101453.88;5016209;28;20100;-67
2022/01/31 01:33:54;;;;;;;74.70;39.55;;;;;;;3.45;59.88;101450.41;5016077;28;20498;-68
2022/01/31 01:36:21;;;;;;;77.80;43.08;;;;;;;3.40;60.23;101451.34;5016297;28;20069;-69
2022/01/31 01:38:48;;;;;;;73.90;40.65;;;;;;;3.42;60.17;101452.16;5016242;28;20436;-67
2022/01/31 01:41:15;;;;;;;73.43;39.58;;;;;;;3.40;59.96;101456.53;5015953;28;20060;-68
2022/01/31 01:43:42;;;;;;;78.65;41.42;;;;;;;3.40;59.85;101453.94;5015895;28;20487;-68
2022/01/31 01:46:09;;;;;;;72.38;41.75;;;;;;;3.37;59.87;101451.38;5015790;28;20133;-68
2022/01/31 01:48:36;;;;;;;76.13;41.22;;;;;;;3.35;59.79;101455.75;5015668;28;20045;-68
2022/01/31 01:51:03;;;;;;;68.65;38.42;;;;;;;3.33;59.98;101449.72;5015784;28;20442;-68
2022/01/31 01:53:30;;;;;;;72.40;39.85;;;;;;;3.36;59.75;101438.44;5015752;28;20046;-68
2022/01/31 01:55:57;;;;;;;70.38;38.80;;;;;;;3.32;59.71;101432.41;5015614;28;20486;-68
2022/01/31 01:58:25;;;;;;;72.20;38.53;;;;;;;3.26;59.70;101417.81;5015978;28;20064;-68
2022/01/31 02:00:59;;;;;;;74.45;40.15;;;;;;;3.24;59.42;101404.00;5015928;28;20398;-68
2022/01/31 02:03:30;;;;;;;76.93;39.88;;;;;;;3.26;59.57;101394.47;5015988;28;20085;-67
2022/01/31 02:05:57;;;;;;;72.03;39.25;;;;;;;3.26;59.39;101397.06;5015456;28;20483;-68
2022/01/31 02:08:25;;;;;;;78.00;42.65;;;;;;;3.23;59.57;101399.69;5015761;28;20104;-68
2022/01/31 02:14:32;;;;;;;72.40;39.70;;;;;;;3.24;59.35;101382.41;5015630;28;20081;-68
2022/01/31 02:16:59;;;;;;;83.18;41.22;;;;;;;3.24;59.26;101377.22;5015548;28;20046;-67
2022/01/31 02:19:26;;;;;;;73.03;38.40;;;;;;;3.21;59.58;101364.28;5015302;28;20045;-68
2022/01/31 02:21:54;;;;;;;79.35;42.70;;;;;;;3.22;59.54;101364.25;5015246;28;20045;-68
2022/01/31 02:24:21;;;;;;;75.80;41.17;;;;;;;3.18;59.54;101364.34;5015147;28;20054;-67
2022/01/31 02:26:48;;;;;;;73.38;40.00;;;;;;;3.13;59.51;101361.81;5015043;28;20046;-67
2022/01/31 02:29:16;;;;;;;79.95;40.90;;;;;;;3.15;59.29;101352.28;5015299;28;20077;-67
2022/01/31 02:31:47;;;;;;;75.10;39.33;;;;;;;3.15;59.11;101341.91;5014937;28;20050;-68
2022/01/31 02:34:16;;;;;;;72.65;40.30;;;;;;;3.11;59.32;101342.81;5015187;28;20100;-68
2022/01/31 02:36:43;;;;;;;69.97;37.95;;;;;;;3.10;59.33;101333.34;5015244;28;20046;-67
2022/01/31 02:39:10;;;;;;;72.57;38.88;;;;;;;3.05;59.25;101348.97;5014852;28;20140;-68
2022/01/31 02:41:45;;;;;;;76.20;39.10;;;;;;;3.02;59.24;101350.75;5014783;28;20056;-68
2022/01/31 02:44:16;;;;;;;73.35;38.22;;;;;;;3.03;59.19;101337.75;5015069;28;20046;-66
2022/01/31 02:46:51;;;;;;;74.20;39.33;;;;;;;3.02;59.17;101337.78;5014961;28;20120;-67
2022/01/31 02:49:22;;;;;;;67.75;38.97;;;;;;;3.00;59.06;101331.81;5014599;28;20100;-68
2022/01/31 02:52:00;;;;;;;73.68;39.15;;;;;;;3.00;59.28;101331.81;5014803;28;20100;-68
2022/01/31 02:54:27;;;;;;;75.38;40.97;;;;;;;3.00;59.12;101321.44;5014573;28;20050;-67
2022/01/31 02:56:54;;;;;;;72.70;39.08;;;;;;;3.02;59.16;101314.47;5014760;28;20046;-68
2022/01/31 02:59:21;;;;;;;69.07;39.30;;;;;;;3.01;59.02;101307.56;5014834;28;20049;-67
2022/01/31 03:01:47;;;;;;;78.13;40.13;;;;;;;3.08;59.31;101296.22;5014134;28;20341;-66
2022/01/31 03:04:14;;;;;;;78.60;39.78;;;;;;;3.17;59.14;101283.09;5014702;28;20042;-68
2022/01/31 03:06:47;;;;;;;73.72;38.90;;;;;;;3.24;59.28;101278.66;5014646;28;20058;-68
2022/01/31 03:09:14;;;;;;;70.05;37.67;;;;;;;3.28;59.61;101272.53;5014623;28;20053;-67
2022/01/31 03:11:41;;;;;;;69.25;37.20;;;;;;;3.30;59.91;101264.72;5014278;28;20048;-67
2022/01/31 03:14:09;;;;;;;72.75;38.65;;;;;;;3.33;60.01;101256.91;5014273;28;20495;-68
2022/01/31 03:16:40;;;;;;;72.38;38.47;;;;;;;3.33;60.07;101251.72;5015080;28;20053;-68
2022/01/31 03:19:08;;;;;;;64.43;35.65;;;;;;;3.32;60.21;101247.41;5014197;28;20132;-68
2022/01/31 03:21:35;;;;;;;69.30;37.22;;;;;;;3.33;60.31;101236.16;5014456;28;20096;-67
2022/01/31 03:24:02;;;;;;;71.43;36.80;;;;;;;3.36;60.40;101230.91;5014425;28;20449;-68
2022/01/31 03:26:29;;;;;;;69.55;36.60;;;;;;;3.33;60.63;101226.63;5014253;28;20054;-67
2022/01/31 03:28:56;;;;;;;67.32;35.17;;;;;;;3.31;60.70;101218.00;5014556;28;20046;-68
2022/01/31 03:31:23;;;;;;;67.07;36.15;;;;;;;3.33;60.61;101218.00;5014208;28;20068;-67
2022/01/31 03:33:52;;;;;;;66.63;35.38;;;;;;;3.32;60.69;101222.31;5014082;28;20501;-66
2022/01/31 03:36:19;;;;;;;72.55;38.45;;;;;;;3.30;60.72;101225.81;5014138;28;20056;-68
2022/01/31 03:38:46;;;;;;;69.32;36.53;;;;;;;3.26;60.61;101225.88;5014091;28;20512;-67
2022/01/31 03:41:16;;;;;;;71.55;37.30;;;;;;;3.29;60.73;101231.88;5014219;28;20054;-67
2022/01/31 03:43:42;;;;;;;68.15;36.10;;;;;;;3.26;60.79;101225.00;5014026;28;20050;-68
2022/01/31 03:46:10;;;;;;;71.30;37.35;;;;;;;3.21;60.85;101227.72;5013688;28;20136;-68
2022/01/31 03:48:37;;;;;;;70.85;37.63;;;;;;;3.18;61.08;101232.94;5014054;28;20045;-67
2022/01/31 03:51:04;;;;;;;66.78;36.22;;;;;;;3.18;60.96;101227.75;5013912;28;20054;-67
2022/01/31 03:53:31;;;;;;;67.57;37.95;;;;;;;3.22;60.82;101221.63;5013995;28;20050;-68
2022/01/31 03:55:58;;;;;;;68.53;36.45;;;;;;;3.20;60.81;101205.25;5013836;28;20042;-67
2022/01/31 03:58:24;;;;;;;76.47;38.80;;;;;;;3.21;60.87;101204.38;5013572;28;20046;-67
2022/01/31 04:00:51;;;;;;;74.65;38.05;;;;;;;3.22;60.98;101200.88;5013609;28;20057;-68
2022/01/31 04:03:18;;;;;;;75.60;38.45;;;;;;;3.18;60.87;101196.63;5013414;28;20053;-68
2022/01/31 04:05:45;;;;;;;68.35;37.80;;;;;;;3.21;60.93;101183.63;5013327;28;20080;-68
2022/01/31 04:08:12;;;;;;;75.05;39.03;;;;;;;3.21;60.67;101191.41;5013059;28;20109;-68
2022/01/31 04:10:39;;;;;;;73.53;39.80;;;;;;;3.13;60.91;101193.28;5013024;28;20049;-68
2022/01/31 04:13:06;;;;;;;70.72;38.03;;;;;;;3.05;61.02;101196.00;5013909;28;20057;-68
2022/01/31 04:15:34;;;;;;;70.82;38.00;;;;;;;3.01;61.08;101186.59;5017440;28;20046;-68
2022/01/31 04:18:02;;;;;;;70.22;39.45;;;;;;;3.02;60.87;101196.06;5017030;28;20077;-68
2022/01/31 04:20:29;;;;;;;67.45;37.85;;;;;;;2.94;61.07;101191.00;5017332;28;20045;-68
2022/01/31 04:23:00;;;;;;;73.80;38.65;;;;;;;2.94;60.99;101177.19;5017324;28;20053;-68
2022/01/31 04:25:42;;;;;;;68.78;36.72;;;;;;;2.93;60.79;101167.69;5016956;28;20491;-68
2022/01/31 04:29:04;;;;;;;70.20;38.75;;;;;;;2.94;60.95;101174.59;5017248;28;20111;-67
2022/01/31 04:31:26;;;;;;;78.55;40.25;;;;;;;2.97;60.58;101169.38;5019511;28;20064;-68
2022/01/31 04:33:52;;;;;;;95.18;39.97;;;;;;;2.96;60.88;101156.41;5031980;28;20050;-68
2022/01/31 04:36:19;;;;;;;79.43;39.55;;;;;;;2.95;60.90;101145.22;5017090;28;20091;-68
2022/01/31 04:38:48;;;;;;;89.55;40.53;;;;;;;2.99;60.92;101127.88;5016946;28;20061;-68
2022/01/31 04:41:16;;;;;;;79.88;40.63;;;;;;;2.98;61.09;101127.00;5017013;28;20128;-68
2022/01/31 04:43:46;;;;;;;74.85;38.83;;;;;;;2.99;61.14;101112.31;5016995;28;20049;-68
2022/01/31 04:46:13;;;;;;;72.20;39.95;;;;;;;2.95;61.34;101108.91;5016599;28;20073;-68
2022/01/31 04:48:39;;;;;;;73.05;38.67;;;;;;;2.93;60.97;101121.03;5016545;28;20042;-67
2022/01/31 04:51:06;;;;;;;75.13;39.83;;;;;;;2.96;60.81;101109.75;5016390;28;20069;-68
2022/01/31 04:53:33;;;;;;;73.40;39.42;;;;;;;2.95;61.32;101129.66;5016944;28;20046;-68
2022/01/31 04:55:59;;;;;;;77.55;40.67;;;;;;;2.90;61.31;101127.13;5031601;28;20057;-68
2022/01/31 04:58:27;;;;;;;66.90;38.30;;;;;;;2.97;61.30;101127.91;5016331;28;20053;-67
2022/01/31 05:00:53;;;;;;;74.80;39.05;;;;;;;2.99;61.22;101125.28;5016337;28;20092;-68
2022/01/31 05:03:21;;;;;;;73.35;40.00;;;;;;;2.98;61.45;101121.81;5016338;28;20545;-68
2022/01/31 05:05:49;;;;;;;75.38;39.42;;;;;;;2.99;61.44;101120.09;5016412;28;20121;-67
2022/01/31 05:08:17;;;;;;;78.15;39.28;;;;;;;2.99;61.82;101131.31;5016142;28;20060;-67
2022/01/31 05:14:34;;;;;;;69.30;37.35;;;;;;;3.02;61.70;101120.00;5016336;28;20084;-68
2022/01/31 05:17:01;;;;;;;73.07;38.38;;;;;;;3.04;61.59;101132.06;5016364;28;20046;-67
2022/01/31 05:19:28;;;;;;;76.22;39.35;;;;;;;3.01;61.79;101126.94;5015981;28;20046;-67
2022/01/31 05:21:55;;;;;;;79.13;37.60;;;;;;;3.00;61.85;101120.06;5016308;28;20049;-67
2022/01/31 05:24:21;;;;;;;75.00;39.42;;;;;;;2.99;61.61;101122.69;5015921;28;20383;-68
2022/01/31 05:26:50;;;;;;;67.55;36.25;;;;;;;2.96;62.02;101131.38;5015597;28;20050;-68
2022/01/31 05:29:18;;;;;;;72.45;38.30;;;;;;;3.00;61.79;101107.09;5016130;28;20144;-68
2022/01/31 05:31:45;;;;;;;73.93;37.30;;;;;;;3.02;61.79;101107.06;5015492;28;20060;-66
2022/01/31 05:34:12;;;;;;;71.55;37.88;;;;;;;2.99;62.02;101110.56;5016045;28;20045;-66
2022/01/31 05:36:39;;;;;;;71.60;38.22;;;;;;;3.03;61.95;101098.41;5015942;28;20456;-65
2022/01/31 05:39:06;;;;;;;72.78;37.53;;;;;;;2.99;62.10;101087.22;5016184;28;20200;-66
2022/01/31 05:41:33;;;;;;;69.90;36.15;;;;;;;2.98;62.21;101095.03;5015643;28;20096;-65
2022/01/31 05:44:00;;;;;;;76.65;39.33;;;;;;;3.00;61.92;101101.06;5015548;28;20050;-65
2022/01/31 05:46:27;;;;;;;69.05;35.72;;;;;;;3.00;62.16;101104.50;5015791;28;20133;-65
2022/01/31 05:48:54;;;;;;;69.53;36.20;;;;;;;3.01;62.25;101106.22;5015978;28;20053;-64
2022/01/31 05:51:22;;;;;;;69.65;36.80;;;;;;;3.05;62.17;101091.47;5015330;28;20054;-65
2022/01/31 05:53:50;;;;;;;73.28;37.38;;;;;;;3.06;62.16;101091.41;5015636;28;20046;-65
2022/01/31 05:56:18;;;;;;;70.18;36.72;;;;;;;3.07;62.16;101090.53;5015247;28;20108;-68
2022/01/31 05:58:45;;;;;;;66.90;35.60;;;;;;;3.07;62.31;101079.28;5015536;28;20045;-65
2022/01/31 06:01:13;;;;;;;70.05;35.65;;;;;;;3.07;62.56;101069.81;5015422;28;20090;-65
2022/01/31 06:03:40;;;;;;;65.55;35.50;;;;;;;3.14;62.40;101064.50;5015419;28;20050;-74
2022/01/31 06:06:06;;;;;;;65.00;35.15;;;;;;;3.17;62.37;101069.59;5015568;28;20058;-72
2022/01/31 06:08:33;;;;;;;61.83;33.75;;;;;;;3.20;62.34;101067.81;5015358;28;20050;-73
2022/01/31 06:11:00;;;;;;;74.03;35.80;;;;;;;3.19;62.55;101068.69;5015238;28;20049;-73
2022/01/31 06:13:32;;;;;;;78.20;36.72;;;;;;;3.18;62.68;101050.56;5014985;28;20479;-73
2022/01/31 06:16:00;;;;;;;75.28;35.65;;;;;;;3.16;62.58;101060.97;5015256;28;20057;-73
2022/01/31 06:18:26;;;;;;;73.00;35.78;;;;;;;3.17;62.67;101056.63;5015248;28;20472;-73
2022/01/31 06:20:53;;;;;;;69.75;36.00;;;;;;;3.21;62.71;101058.28;5015124;28;20053;-71
2022/01/31 06:23:26;;;;;;;68.03;34.53;;;;;;;3.21;62.71;101050.50;5014794;28;20486;-72
2022/01/31 06:25:55;;;;;;;66.57;35.23;;;;;;;3.23;62.72;101046.97;5014706;28;20088;-71
2022/01/31 06:28:23;;;;;;;74.07;35.45;;;;;;;3.25;62.69;101031.38;5014653;28;20049;-70
2022/01/31 06:30:50;;;;;;;67.53;36.42;;;;;;;3.26;62.67;101031.38;5014703;28;20058;-72
2022/01/31 06:33:17;;;;;;;65.57;36.17;;;;;;;3.28;62.93;101031.34;5014575;28;20046;-72
2022/01/31 06:35:44;;;;;;;68.93;36.15;;;;;;;3.31;62.81;101018.28;5014799;28;20050;-70
2022/01/31 06:38:11;;;;;;;68.68;35.88;;;;;;;3.32;63.01;101003.59;5013763;28;20049;-72
2022/01/31 06:40:38;;;;;;;65.70;34.47;;;;;;;3.34;62.78;100987.09;5014494;28;20064;-70
2022/01/31 06:43:04;;;;;;;67.65;35.22;;;;;;;3.37;62.85;100979.25;5015249;28;20050;-69
2022/01/31 06:45:31;;;;;;;71.97;37.63;;;;;;;3.39;62.72;100972.28;5014912;28;20042;-69
2022/01/31 06:48:04;;;;;;;73.88;37.33;;;;;;;3.42;62.98;100972.19;5014576;28;20048;-69
2022/01/31 06:50:30;;;;;;;73.15;36.97;;;;;;;3.40;62.92;100980.91;5014482;28;20148;-70
2022/01/31 06:52:59;;;;;;;66.53;35.47;;;;;;;3.39;63.12;100967.09;5014491;28;20111;-69
2022/01/31 06:55:26;;;;;;;67.25;33.53;;;;;;;3.91;63.16;100964.13;5014369;28;20046;-72
2022/01/31 06:57:53;;;;;;;74.00;36.80;;;;;;;3.71;63.13;100968.06;5014088;28;20410;-72
2022/01/31 07:00:20;;;;;;;70.00;36.70;;;;;;;3.64;63.68;100961.31;5014409;28;20054;-73
2022/01/31 07:02:49;;;;;;;72.85;38.55;;;;;;;3.63;63.54;100958.75;5014259;28;20046;-70
2022/01/31 07:05:18;;;;;;;71.60;38.83;;;;;;;3.62;63.62;100944.94;5014329;28;20049;-70
2022/01/31 07:07:45;;;;;;;72.70;38.83;;;;;;;3.71;63.46;100938.69;5014209;28;20050;-72
2022/01/31 07:10:12;;;;;;;77.13;41.10;;;;;;;3.63;63.72;100948.38;5013987;28;20053;-69
2022/01/31 07:12:41;;;;;;;75.55;39.65;;;;;;;3.62;63.86;100951.88;5014081;28;20054;-73
2022/01/31 07:15:10;;;;;;;77.13;39.58;;;;;;;3.62;63.97;100951.88;5014288;28;20053;-72
2022/01/31 07:17:38;;;;;;;75.50;40.08;;;;;;;3.63;64.00;100948.38;5013872;28;20384;-71
2022/01/31 07:20:10;;;;;;;77.78;40.60;;;;;;;3.67;63.83;100943.09;5013941;28;20042;-71
2022/01/31 07:22:39;;;;;;;81.90;44.00;;;;;;;3.71;63.85;100929.13;5013571;28;20499;-69
2022/01/31 07:25:21;;;;;;;84.32;44.20;;;;;;;3.73;64.02;100932.56;5013418;28;20585;-71
2022/01/31 07:27:48;;;;;;;77.20;42.17;;;;;;;3.76;64.06;100937.66;5014090;28;20050;-70
2022/01/31 07:30:14;;;;;;;77.20;39.42;;;;;;;3.84;63.85;100942.66;5013614;28;20054;-71
2022/01/31 07:32:42;;;;;;;76.80;38.00;;;;;;;3.87;63.86;100945.19;5013840;28;20045;-70
2022/01/31 07:35:09;;;;;;;74.57;35.38;;;;;;;3.91;63.91;100940.75;5013496;28;20081;-68
2022/01/31 07:37:36;;;;;;;71.25;36.47;;;;;;;3.94;63.57;100943.28;5013697;28;20557;-69
2022/01/31 07:40:05;;;;;;;74.57;37.95;;;;;;;3.95;63.46;100949.31;5013733;28;20096;-73
2022/01/31 07:42:32;;;;;;;70.68;35.72;;;;;;;3.97;63.68;100958.78;5013566;28;20046;-73
2022/01/31 07:44:58;;;;;;;72.07;36.92;;;;;;;4.00;63.44;100957.84;5013416;28;20050;-69
2022/01/31 07:47:36;;;;;;;70.22;36.85;;;;;;;4.04;63.56;100954.28;5013166;28;20129;-69
2022/01/31 07:50:04;;;;;;;76.57;37.13;;;;;;;4.11;63.24;100953.22;5012950;28;20053;-69
2022/01/31 07:52:31;;;;;;;70.03;37.22;;;;;;;4.11;63.38;100950.63;5013048;28;20057;-68
2022/01/31 07:54:58;;;;;;;74.38;39.10;;;;;;;4.16;63.14;100948.75;5012855;28;20152;-69
2022/01/31 07:57:25;;;;;;;71.32;37.70;;;;;;;4.19;63.19;100932.22;5013212;28;20087;-69
2022/01/31 08:00:00;;;;;;;74.93;37.78;;;;;;;4.31;62.83;100924.13;5013122;28;20475;-69
2022/01/31 08:02:27;;;;;;;74.47;38.45;;;;;;;4.45;62.72;100925.50;5013453;28;20062;-68
2022/01/31 08:04:55;;;;;;;82.90;40.88;;;;;;;4.51;62.43;100920.97;5013115;28;20129;-68
2022/01/31 08:07:22;;;;;;;78.90;38.70;;;;;;;4.56;62.52;100905.25;5012999;28;20042;-67
2022/01/31 08:09:49;;;;;;;77.03;38.53;;;;;;;4.56;62.43;100906.09;5012926;28;20570;-68
2022/01/31 08:16:02;;;;;;;74.60;39.13;;;;;;;4.65;62.50;100902.38;5013060;28;20056;-68
2022/01/31 08:18:30;;;;;;;74.50;37.97;;;;;;;4.68;62.10;100899.66;5013153;28;20137;-69
2022/01/31 08:20:56;;;;;;;83.15;40.28;;;;;;;4.70;62.45;100884.88;5013175;28;20527;-69
2022/01/31 08:23:23;;;;;;;79.95;40.47;;;;;;;4.73;62.57;100868.34;5013333;28;20077;-69
2022/01/31 08:25:51;;;;;;;81.28;40.28;;;;;;;4.78;62.36;100857.81;5013215;28;20098;-68
2022/01/31 08:28:21;;;;;;;80.80;41.30;;;;;;;4.79;62.66;100862.13;5013057;28;20052;-68
2022/01/31 08:31:02;;;;;;;77.18;39.90;;;;;;;4.85;62.76;100856.72;5012430;28;20534;-68
2022/01/31 08:33:39;;;;;;;84.50;43.75;;;;;;;4.82;62.94;100860.25;5012694;28;20042;-68
2022/01/31 08:36:07;;;;;;;91.78;46.47;;;;;;;4.86;62.77;100858.41;5012776;28;20042;-67
2022/01/31 08:38:36;;;;;;;93.10;44.63;;;;;;;4.89;62.71;100846.19;5013159;28;20566;-68
2022/01/31 08:41:03;;;;;;;88.53;45.35;;;;;;;4.87;62.89;100850.56;5013126;28;20049;-69
2022/01/31 08:43:30;;;;;;;82.55;44.17;;;;;;;4.93;63.07;100861.66;5012599;28;20050;-68
2022/01/31 08:45:58;;;;;;;83.28;42.58;;;;;;;4.99;62.95;100853.69;5013160;28;20054;-69
2022/01/31 08:48:27;;;;;;;79.95;41.40;;;;;;;4.96;63.07;100833.81;5012780;28;20052;-72
2022/01/31 08:50:55;;;;;;;79.15;40.15;;;;;;;4.99;63.02;100841.53;5012825;28;20470;-71
2022/01/31 08:53:21;;;;;;;74.50;40.53;;;;;;;5.03;62.89;100844.91;5012593;28;20460;-70
2022/01/31 08:55:51;;;;;;;74.88;39.83;;;;;;;5.02;62.74;100848.41;5012843;28;20129;-70
2022/01/31 08:58:19;;;;;;;81.65;40.08;;;;;;;4.92;63.65;100850.44;5012824;28;20099;-71
2022/01/31 09:00:49;;;;;;;73.10;38.42;;;;;;;5.01;63.48;100844.09;5013949;28;20050;-71
2022/01/31 09:03:34;;;;;;;71.78;37.90;;;;;;;5.04;63.13;100846.56;5016443;28;20533;-71
2022/01/31 09:06:02;;;;;;;68.05;37.40;;;;;;;5.11;63.14;100842.06;5015992;28;20057;-70
2022/01/31 09:08:29;;;;;;;78.13;39.45;;;;;;;5.12;63.67;100834.19;5016359;28;20128;-70
2022/01/31 09:10:56;;;;;;;70.47;38.20;;;;;;;5.14;63.68;100819.41;5016480;28;20065;-70
2022/01/31 09:13:23;;;;;;;72.93;39.28;;;;;;;5.21;63.85;100820.03;5016196;28;20450;-70
2022/01/31 09:15:50;;;;;;;65.10;37.22;;;;;;;5.21;63.77;100807.03;5016214;28;20042;-71
2022/01/31 09:18:18;;;;;;;72.65;39.58;;;;;;;5.21;64.24;100812.22;5016708;28;20042;-72
2022/01/31 09:20:45;;;;;;;77.47;40.10;;;;;;;5.22;64.29;100804.38;5015851;28;20137;-71
2022/01/31 09:23:11;;;;;;;74.22;39.38;;;;;;;5.28;64.47;100797.25;5015894;28;20050;-71
2022/01/31 09:25:44;;;;;;;73.97;41.30;;;;;;;5.31;64.36;100797.16;5015631;28;20042;-69
2022/01/31 09:28:14;;;;;;;72.30;40.47;;;;;;;5.34;64.32;100803.09;5015759;28;20490;-69
2022/01/31 09:30:43;;;;;;;78.47;41.65;;;;;;;5.44;64.46;100789.78;5015487;28;20057;-71
2022/01/31 09:33:11;;;;;;;75.93;41.33;;;;;;;5.54;64.04;100775.56;5015843;28;20049;-70
2022/01/31 09:35:38;;;;;;;79.45;40.83;;;;;;;5.74;63.49;100772.25;5015949;28;20046;-70
2022/01/31 09:38:05;;;;;;;76.65;42.55;;;;;;;5.75;63.43;100763.50;5015748;28;20119;-69
2022/01/31 09:40:32;;;;;;;81.88;42.75;;;;;;;5.71;63.82;100768.00;5015733;28;20053;-70
2022/01/31 09:48:37;;;;;;;85.45;41.35;;;;;;;5.51;64.22;100765.22;5014911;28;20080;-68
2022/01/31 09:51:12;;;;;;;78.68;40.85;;;;;;;5.44;64.31;100755.97;5015256;28;20081;-68
2022/01/31 09:53:47;;;;;;;87.00;43.60;;;;;;;5.80;63.53;100753.81;5015393;28;20108;-67
2022/01/31 09:56:30;;;;;;;81.40;41.72;;;;;;;5.81;63.46;100757.25;5015472;28;20054;-68
2022/01/31 09:58:58;;;;;;;78.00;40.35;;;;;;;6.60;61.66;100736.91;5015208;28;20045;-67
2022/01/31 10:01:29;;;;;;;81.57;38.85;;;;;;;6.93;60.67;100753.81;5015105;28;20050;-68
2022/01/31 10:04:09;;;;;;;98.07;54.92;;;;;;;7.00;60.49;100755.28;5014896;28;20046;-68
2022/01/31 10:06:38;;;;;;;108.00;54.17;;;;;;;7.45;59.70;100730.75;5015048;28;20129;-70
2022/01/31 10:09:33;;;;;;;138.07;74.65;;;;;;;8.10;57.73;100733.06;5015338;28;20080;-68
2022/01/31 10:12:09;;;;;;;139.70;71.60;;;;;;;7.92;58.26;100728.66;5014724;28;20092;-69
2022/01/31 10:17:31;;;;;;;125.97;63.28;;;;;;;7.48;59.48;100704.50;5015122;28;20049;-68
2022/01/31 10:20:25;;;;;;;89.22;44.33;;;;;;;7.76;58.48;100703.25;5014871;28;20049;-68
2022/01/31 10:22:52;;;;;;;79.35;43.25;;;;;;;7.83;58.06;100688.13;5014786;28;20046;-69
2022/01/31 10:25:22;;;;;;;90.05;49.75;;;;;;;7.65;58.69;100687.22;5014530;28;20498;-69
2022/01/31 10:28:17;;;;;;;85.63;46.35;;;;;;;7.61;58.42;100664.78;5015442;28;20053;-72
2022/01/31 10:30:46;;;;;;;61.38;32.58;;;;;;;8.34;56.45;100656.97;5014561;28;20050;-69
2022/01/31 10:33:13;;;;;;;66.30;34.38;;;;;;;9.05;54.47;100652.63;5014739;28;20050;-67
2022/01/31 10:35:41;;;;;;;57.20;30.58;;;;;;;9.44;53.47;100633.13;5014743;28;20050;-69
2022/01/31 10:38:12;;;;;;;60.20;31.83;;;;;;;8.88;54.74;100630.78;5014616;28;20046;-69
2022/01/31 10:56:55;;;;;;;63.35;31.27;;;;;;;9.94;51.95;100539.53;5014104;28;20132;-68
2022/01/31 10:59:26;;;;;;;63.78;30.77;;;;;;;10.21;51.03;100520.50;5014059;28;20085;-69
2022/01/31 11:01:57;;;;;;;60.67;30.65;;;;;;;10.30;50.88;100502.47;5014010;28;20042;-68
2022/01/31 11:04:31;;;;;;;58.67;30.88;;;;;;;10.56;50.30;100491.38;5014279;28;20475;-68
2022/01/31 11:07:01;;;;;;;58.47;31.13;;;;;;;10.81;49.30;100492.50;5013880;28;20049;-69
2022/01/31 11:09:29;;;;;;;57.08;29.92;;;;;;;10.94;48.93;100485.56;5014359;28;20053;-69
2022/01/31 11:15:48;;;;;;;53.55;27.95;;;;;;;11.15;48.31;100467.63;5013759;28;20069;-69
2022/01/31 11:18:14;;;;;;;58.15;32.88;;;;;;;11.22;48.13;100463.66;5014017;28;20420;-69
2022/01/31 11:20:43;;;;;;;59.72;30.15;;;;;;;11.23;47.96;100454.00;5013941;28;20509;-70
2022/01/31 11:23:12;;;;;;;62.78;30.75;;;;;;;11.24;47.97;100477.53;5013437;28;20052;-70
2022/01/31 11:25:41;;;;;;;54.45;30.45;;;;;;;11.38;47.57;100471.38;5014369;28;20054;-70
2022/01/31 11:28:10;;;;;;;58.67;31.75;;;;;;;11.64;47.00;100475.88;5014650;28;20060;-70
2022/01/31 11:30:40;;;;;;;68.72;35.45;;;;;;;11.51;47.42;100460.91;5013760;28;20183;-69
2022/01/31 11:33:10;;;;;;;106.57;63.38;;;;;;;11.40;47.84;100452.88;5013476;28;20482;-70
2022/01/31 11:35:37;;;;;;;76.88;43.75;;;;;;;11.20;48.50;100447.16;5013374;28;20085;-71
2022/01/31 11:38:04;;;;;;;74.45;44.97;;;;;;;10.96;49.05;100439.06;5013533;28;20046;-72
2022/01/31 11:40:31;;;;;;;55.95;32.38;;;;;;;10.86;49.51;100424.81;5013377;28;20502;-71
2022/01/31 11:42:58;;;;;;;57.85;31.52;;;;;;;10.76;49.83;100419.31;5013561;28;20050;-67
2022/01/31 11:45:29;;;;;;;59.33;31.88;;;;;;;11.09;49.10;100418.94;5013223;28;20104;-70
2022/01/31 11:47:58;;;;;;;56.47;30.73;;;;;;;11.22;48.77;100411.13;5013567;28;20080;-67
2022/01/31 11:50:26;;;;;;;56.05;31.13;;;;;;;11.46;48.25;100401.75;5013286;28;20041;-70
2022/01/31 11:52:57;;;;;;;57.60;31.75;;;;;;;11.41;48.52;100405.53;5013110;28;20054;-69
2022/01/31 11:55:35;;;;;;;56.95;32.13;;;;;;;11.62;48.28;100386.63;5013326;28;20062;-68
2022/01/31 11:58:07;;;;;;;58.08;31.55;;;;;;;11.57;48.45;100376.44;5013399;28;20042;-70
2022/01/31 12:00:37;;;;;;;53.53;31.27;;;;;;;11.63;48.60;100356.78;5014133;28;20046;-71
2022/01/31 12:03:06;;;;;;;56.88;31.80;;;;;;;11.28;49.37;100345.03;5012994;28;20049;-71